Aumsville, Oregon
Current Conditions -  °F | °C
As of 1:56 AM on Sunday 21 Dec 2014 (Local Time) from KSLE Reporting Station
Scattered Clouds Scattered Clouds  
Wind Chill: 58°   Ceiling: Unl
Heat Index: 58°   Visibility: 10mi
Dew Point: 51°   Wind: 15mph
Humidity: 78%   Direction: 240°WSW
Pressure: 29.86"   Gusts: 22mph
Location:  44.84°N, 122.87°W
Report Text: KSLE 210956Z AUTO 24013G19KT 10SM SCT070 SCT090 14/11 A2986 RMK AO2 RAB09E19 SLP111 P0000 T01440106
Loading
Personal Weather Stations






























Interactive Weather Map New forecast layout! Learn more

10-Day Weather Forecast

Advertisements
Track Severe Weather on mobile